Time;durP1;ratioP1;P1;durP2;ratioP2;P2;SDS_P1;SDS_P2;PMS_P1;PMS_P2;Temp;Humidity;BMP_temperature;BMP_pressure;BME280_temperature;BME280_humidity;BME280_pressure;Samples;Min_cycle;Max_cycle;Signal;HPM_P1;HPM_P2
2022/12/12 00:02:03;;;;;;;13.13;9.00;;;-4.30;99.90;;;;;;5028905;28;21042;-52
2022/12/12 00:04:31;;;;;;;16.13;9.17;;;-4.20;99.90;;;;;;5028607;28;20535;-50
2022/12/12 00:06:58;;;;;;;14.17;8.37;;;-4.20;99.90;;;;;;5027914;28;20536;-51
2022/12/12 00:09:26;;;;;;;11.67;8.63;;;-4.20;99.90;;;;;;5028804;28;20459;-51
2022/12/12 00:11:54;;;;;;;15.40;9.00;;;-4.30;99.90;;;;;;5023340;28;20458;-51
2022/12/12 00:14:21;;;;;;;14.50;9.47;;;-4.20;99.90;;;;;;5024164;28;20469;-51
2022/12/12 00:16:50;;;;;;;16.20;10.13;;;-4.20;99.90;;;;;;5026270;28;20569;-51
2022/12/12 00:19:18;;;;;;;14.93;8.33;;;-4.20;99.90;;;;;;5029200;28;20991;-51
2022/12/12 00:21:45;;;;;;;12.47;9.63;;;-4.30;99.90;;;;;;5028919;28;20465;-51
2022/12/12 00:24:13;;;;;;;15.20;9.80;;;-4.30;99.90;;;;;;5027876;28;20494;-53
2022/12/12 00:26:41;;;;;;;15.30;10.10;;;-4.30;99.90;;;;;;5026701;28;20482;-51
2022/12/12 00:29:08;;;;;;;17.33;9.43;;;-4.30;99.90;;;;;;5021395;28;20457;-51
2022/12/12 00:31:36;;;;;;;14.10;9.37;;;-4.40;99.90;;;;;;5021114;28;20502;-54
2022/12/12 00:34:04;;;;;;;13.83;8.83;;;-4.40;99.90;;;;;;5025447;28;20454;-52
2022/12/12 00:36:32;;;;;;;15.43;9.40;;;-4.50;99.90;;;;;;5028041;28;20543;-51
2022/12/12 00:39:01;;;;;;;13.43;9.40;;;-4.40;99.90;;;;;;5028650;28;20508;-51
2022/12/12 00:41:28;;;;;;;13.77;9.57;;;-4.40;99.90;;;;;;5024429;28;20465;-51
2022/12/12 00:43:56;;;;;;;17.20;10.13;;;-4.40;99.90;;;;;;5025579;28;20497;-50
2022/12/12 00:46:25;;;;;;;13.03;8.57;;;-4.40;99.90;;;;;;5026808;28;20567;-51
2022/12/12 00:48:56;;;;;;;14.83;8.80;;;-4.40;99.90;;;;;;5030871;28;20446;-49
2022/12/12 00:51:26;;;;;;;14.10;8.17;;;-4.50;99.90;;;;;;5034566;28;20472;-51
2022/12/12 00:53:56;;;;;;;15.57;7.73;;;-4.60;99.90;;;;;;5033682;28;20459;-51
2022/12/12 00:56:25;;;;;;;16.10;8.83;;;-4.50;99.90;;;;;;5033200;28;20512;-51
2022/12/12 00:58:53;;;;;;;12.87;8.20;;;-4.60;99.90;;;;;;5034546;28;20931;-49
2022/12/12 01:01:24;;;;;;;14.87;8.73;;;-4.50;99.90;;;;;;5034585;28;20996;-51
2022/12/12 01:03:52;;;;;;;13.80;9.10;;;-4.50;99.90;;;;;;5031592;28;20457;-51
2022/12/12 01:06:20;;;;;;;13.63;8.13;;;-4.50;99.90;;;;;;5033185;28;20482;-50
2022/12/12 01:08:49;;;;;;;11.87;8.10;;;-4.60;99.90;;;;;;5030392;28;20449;-51
2022/12/12 01:11:19;;;;;;;12.73;9.33;;;-4.70;99.90;;;;;;5027109;28;20516;-50
2022/12/12 01:13:48;;;;;;;13.70;8.53;;;-4.80;99.90;;;;;;5032638;28;20951;-51
2022/12/12 01:16:16;;;;;;;16.53;9.63;;;-4.90;99.90;;;;;;5034260;28;20481;-53
2022/12/12 01:18:43;;;;;;;13.37;9.30;;;-5.00;99.90;;;;;;5034243;28;20523;-50
2022/12/12 01:21:13;;;;;;;18.10;9.70;;;-5.00;99.90;;;;;;5034177;28;20551;-50
2022/12/12 01:23:41;;;;;;;16.87;10.23;;;-5.10;99.90;;;;;;5030949;28;20508;-50
2022/12/12 01:26:14;;;;;;;16.47;9.43;;;-5.10;99.90;;;;;;5029098;28;20482;-50
2022/12/12 01:28:42;;;;;;;12.70;9.23;;;-5.00;99.90;;;;;;5022038;28;20952;-51
2022/12/12 01:31:10;;;;;;;14.00;8.77;;;-4.90;99.90;;;;;;5032979;28;20549;-51
2022/12/12 01:33:38;;;;;;;14.13;9.00;;;-4.90;99.90;;;;;;5032391;28;20462;-52
2022/12/12 01:36:06;;;;;;;15.33;8.43;;;-4.90;99.90;;;;;;5026763;28;20572;-51
2022/12/12 01:38:34;;;;;;;17.27;9.43;;;-4.90;99.90;;;;;;5029516;28;20466;-51
2022/12/12 01:41:01;;;;;;;16.70;9.27;;;-4.90;99.90;;;;;;5032315;28;20457;-51
2022/12/12 01:43:30;;;;;;;14.63;8.93;;;-4.90;99.90;;;;;;5033036;28;20841;-49
2022/12/12 01:46:33;;;;;;;13.93;7.57;;;-5.00;99.90;;;;;;5030076;28;20478;-50
2022/12/12 01:49:04;;;;;;;13.97;7.57;;;-5.00;99.90;;;;;;5034479;28;20438;-50
2022/12/12 01:51:33;;;;;;;14.43;8.07;;;-5.00;99.90;;;;;;5033667;28;20454;-50
2022/12/12 01:54:07;;;;;;;11.03;7.77;;;-5.10;99.90;;;;;;5033322;28;20469;-48
2022/12/12 01:56:38;;;;;;;14.17;7.83;;;-5.10;99.90;;;;;;5030375;28;20547;-49
2022/12/12 01:59:11;;;;;;;12.20;7.10;;;-5.10;99.90;;;;;;5031660;28;20504;-50
2022/12/12 02:01:39;;;;;;;16.17;9.50;;;-5.10;99.90;;;;;;5030976;28;20485;-51
2022/12/12 02:04:09;;;;;;;11.27;8.20;;;-5.00;99.90;;;;;;5032951;28;20210;-51
2022/12/12 02:06:37;;;;;;;12.03;9.27;;;-5.00;99.90;;;;;;5029670;28;20489;-51
2022/12/12 02:09:10;;;;;;;14.40;9.50;;;-5.00;99.90;;;;;;5021028;28;20455;-51
2022/12/12 02:11:43;;;;;;;14.83;8.27;;;-5.10;99.90;;;;;;5020482;28;20556;-53
2022/12/12 02:14:14;;;;;;;18.23;9.57;;;-5.10;99.90;;;;;;5020618;28;20984;-50
2022/12/12 02:17:05;;;;;;;15.53;10.13;;;-5.10;99.90;;;;;;5032075;28;21010;-51
2022/12/12 02:20:32;;;;;;;18.50;9.17;;;-5.10;99.90;;;;;;4990998;28;20846;-50
2022/12/12 02:23:45;;;;;;;12.70;7.27;;;-5.10;99.90;;;;;;5032009;28;20454;-54
2022/12/12 02:27:02;;;;;;;13.67;7.97;;;-5.20;99.90;;;;;;5028716;28;20485;-51
2022/12/12 02:30:05;;;;;;;18.83;9.43;;;-5.30;99.90;;;;;;5026547;28;20465;-51
2022/12/12 02:32:48;;;;;;;15.87;8.53;;;-5.30;99.90;;;;;;5033276;28;20454;-51
2022/12/12 02:35:21;;;;;;;13.57;8.47;;;-5.40;99.90;;;;;;5020399;28;21021;-51
2022/12/12 02:37:53;;;;;;;14.10;8.03;;;-5.40;99.90;;;;;;5030996;28;20548;-51
2022/12/12 02:40:26;;;;;;;11.13;7.27;;;-5.40;99.90;;;;;;5032527;28;20531;-50
2022/12/12 02:42:59;;;;;;;12.80;7.60;;;-5.40;99.90;;;;;;5031108;28;20519;-51
2022/12/12 02:45:34;;;;;;;13.30;7.70;;;-5.40;99.90;;;;;;5031412;28;20470;-51
2022/12/12 02:48:11;;;;;;;15.60;6.87;;;-5.40;99.90;;;;;;5033079;28;20453;-51
2022/12/12 02:50:40;;;;;;;12.97;6.90;;;-5.40;99.90;;;;;;5031315;28;20962;-51
2022/12/12 02:53:07;;;;;;;12.00;6.60;;;-5.40;99.90;;;;;;5031597;28;20465;-50
2022/12/12 02:55:35;;;;;;;11.27;6.80;;;-5.40;99.90;;;;;;5031173;28;20490;-50
2022/12/12 02:58:03;;;;;;;9.90;6.40;;;-5.40;99.90;;;;;;5031172;28;20461;-52
2022/12/12 03:00:39;;;;;;;9.43;6.20;;;-5.40;99.90;;;;;;5031903;28;20481;-51
2022/12/12 03:09:16;;;;;;;11.37;5.80;;;-5.60;99.90;;;;;;5021840;28;20836;-52
2022/12/12 03:11:55;;;;;;;10.83;6.13;;;-5.60;99.90;;;;;;5025606;28;20545;-50
2022/12/12 03:14:26;;;;;;;11.87;6.77;;;-5.50;99.90;;;;;;5031828;28;20967;-54
2022/12/12 03:17:01;;;;;;;11.57;5.50;;;-5.60;99.90;;;;;;5026079;28;20531;-51
2022/12/12 03:19:37;;;;;;;9.63;6.63;;;-5.60;99.90;;;;;;5031795;28;20531;-52
2022/12/12 03:22:12;;;;;;;8.50;5.90;;;-5.60;99.90;;;;;;5023628;28;20499;-50
2022/12/12 03:24:49;;;;;;;11.57;7.33;;;-5.60;99.90;;;;;;5031535;28;20888;-54
2022/12/12 03:27:20;;;;;;;7.63;5.97;;;-5.60;99.90;;;;;;5030828;28;20485;-50
2022/12/12 03:29:53;;;;;;;8.77;5.90;;;-5.60;99.90;;;;;;5031612;28;20458;-51
2022/12/12 03:32:25;;;;;;;9.17;5.97;;;-5.70;99.90;;;;;;5031204;28;20495;-51
2022/12/12 03:35:00;;;;;;;8.33;6.23;;;-5.70;99.90;;;;;;5029503;28;20466;-51
2022/12/12 03:37:31;;;;;;;9.33;6.43;;;-5.80;99.90;;;;;;5027264;28;21077;-53
2022/12/12 03:40:01;;;;;;;8.90;6.10;;;-5.80;99.90;;;;;;5029660;28;20485;-51
2022/12/12 03:42:35;;;;;;;10.03;6.43;;;-5.80;99.90;;;;;;5032841;28;20504;-51
2022/12/12 03:45:07;;;;;;;8.27;6.10;;;-5.90;99.90;;;;;;5029588;28;20458;-52
2022/12/12 03:47:41;;;;;;;9.10;5.07;;;-5.90;99.90;;;;;;5031848;28;20482;-50
2022/12/12 03:50:14;;;;;;;7.83;5.40;;;-5.90;99.90;;;;;;5025775;28;20442;-51
2022/12/12 03:52:46;;;;;;;8.57;5.20;;;-5.90;99.90;;;;;;5030057;28;20539;-52
2022/12/12 03:55:18;;;;;;;7.87;5.23;;;-5.90;99.90;;;;;;5028740;28;20462;-51
2022/12/12 03:57:51;;;;;;;7.80;4.60;;;-6.00;99.90;;;;;;5030038;28;21094;-51
2022/12/12 04:00:18;;;;;;;8.23;4.73;;;-6.00;99.90;;;;;;5031234;28;20480;-51
2022/12/12 04:02:50;;;;;;;7.97;4.90;;;-6.00;99.90;;;;;;5028575;28;20883;-49
2022/12/12 04:05:24;;;;;;;7.00;4.63;;;-6.00;99.90;;;;;;5027781;28;20462;-51
2022/12/12 04:07:54;;;;;;;7.23;5.03;;;-6.00;99.90;;;;;;5029785;28;20489;-51
2022/12/12 04:13:13;;;;;;;7.40;4.80;;;-6.00;99.90;;;;;;5017815;28;20454;-50
2022/12/12 04:15:52;;;;;;;9.03;4.97;;;-5.90;99.90;;;;;;5024355;28;20458;-52
2022/12/12 04:18:26;;;;;;;12.67;5.67;;;-5.90;99.90;;;;;;5030273;28;20870;-51
2022/12/12 04:24:00;;;;;;;12.47;6.57;;;-5.90;99.90;;;;;;5027670;28;20974;-51
2022/12/12 04:26:39;;;;;;;8.23;5.10;;;-5.90;99.90;;;;;;5030203;28;20476;-50
2022/12/12 04:29:24;;;;;;;11.87;6.47;;;-5.90;99.90;;;;;;5023515;28;20460;-51
2022/12/12 04:31:56;;;;;;;8.70;5.27;;;-5.90;99.90;;;;;;5028006;28;20461;-50
2022/12/12 04:34:33;;;;;;;8.10;6.37;;;-5.90;99.90;;;;;;5028939;28;20869;-50
2022/12/12 04:37:04;;;;;;;15.13;7.40;;;-5.90;99.90;;;;;;5028843;28;20488;-52
2022/12/12 04:39:32;;;;;;;8.47;6.30;;;-6.00;99.90;;;;;;5027620;28;20486;-52
2022/12/12 04:42:01;;;;;;;9.73;6.30;;;-5.90;99.90;;;;;;5030652;28;20882;-51
2022/12/12 04:44:32;;;;;;;12.77;7.00;;;-5.90;99.90;;;;;;5027970;28;20469;-52
2022/12/12 04:47:01;;;;;;;9.37;5.23;;;-5.90;99.90;;;;;;5029417;28;20478;-51
2022/12/12 04:49:31;;;;;;;10.43;7.33;;;-5.90;99.90;;;;;;5025089;28;21034;-51
2022/12/12 04:52:03;;;;;;;16.13;10.90;;;-5.90;99.90;;;;;;5029425;28;20539;-51
2022/12/12 04:54:37;;;;;;;10.27;8.10;;;-5.80;99.90;;;;;;5027421;28;20524;-51
2022/12/12 04:57:08;;;;;;;10.87;7.97;;;-5.80;99.90;;;;;;5029184;28;20531;-50
2022/12/12 04:59:36;;;;;;;8.10;6.30;;;-5.80;99.90;;;;;;5030848;28;20487;-51
2022/12/12 05:02:09;;;;;;;9.67;6.50;;;-5.80;99.90;;;;;;5028659;28;20516;-52
2022/12/12 05:04:50;;;;;;;10.43;6.07;;;-5.80;99.90;;;;;;5026253;28;20477;-52
2022/12/12 05:07:25;;;;;;;6.80;5.07;;;-5.80;99.90;;;;;;5024052;28;20515;-52
2022/12/12 05:09:52;;;;;;;8.20;5.40;;;-5.70;99.90;;;;;;5020672;28;20468;-49
2022/12/12 05:12:19;;;;;;;8.97;4.83;;;-5.70;99.90;;;;;;5023237;28;20461;-53
2022/12/12 05:14:47;;;;;;;6.47;4.60;;;-5.60;99.90;;;;;;5026927;28;20931;-51
2022/12/12 05:17:22;;;;;;;8.20;5.70;;;-5.60;99.90;;;;;;5029534;28;20561;-50
2022/12/12 05:19:50;;;;;;;10.37;6.20;;;-5.50;99.90;;;;;;5026379;28;20588;-53
2022/12/12 05:22:18;;;;;;;14.63;7.37;;;-5.50;99.90;;;;;;5029503;28;20474;-52
2022/12/12 05:24:45;;;;;;;10.90;6.70;;;-5.40;99.90;;;;;;5022911;28;20513;-52
2022/12/12 05:27:12;;;;;;;9.40;6.30;;;-5.30;99.90;;;;;;5023449;28;20485;-52
2022/12/12 05:29:41;;;;;;;7.50;4.67;;;-5.30;99.90;;;;;;5027537;28;20453;-51
2022/12/12 05:32:08;;;;;;;6.00;4.90;;;-5.30;99.90;;;;;;5031707;28;20454;-50
2022/12/12 05:34:35;;;;;;;7.20;4.90;;;-5.20;99.90;;;;;;5029886;28;20468;-50
2022/12/12 05:37:02;;;;;;;8.70;4.97;;;-5.20;99.90;;;;;;5034501;28;20824;-51
2022/12/12 05:39:30;;;;;;;7.87;5.30;;;-5.20;99.90;;;;;;5033049;28;20874;-51
2022/12/12 05:41:57;;;;;;;8.90;5.37;;;-5.20;99.90;;;;;;5031337;28;20518;-51
2022/12/12 05:44:24;;;;;;;9.07;6.07;;;-5.20;99.90;;;;;;5032439;28;21027;-55
2022/12/12 05:46:51;;;;;;;21.23;7.07;;;-5.10;99.90;;;;;;5033061;28;20482;-50
2022/12/12 05:49:21;;;;;;;9.53;6.70;;;-5.10;99.90;;;;;;5032367;28;20491;-50
2022/12/12 05:51:48;;;;;;;11.30;5.87;;;-5.00;99.90;;;;;;5031823;28;20454;-50
2022/12/12 05:54:15;;;;;;;7.53;5.47;;;-5.00;99.90;;;;;;5023665;28;20462;-50
2022/12/12 05:56:44;;;;;;;8.23;5.17;;;-5.10;99.90;;;;;;5031688;28;20523;-50
2022/12/12 05:59:11;;;;;;;8.17;5.70;;;-5.00;99.90;;;;;;5034355;28;20508;-51
2022/12/12 06:01:38;;;;;;;10.17;6.43;;;-5.10;99.90;;;;;;5034073;28;20477;-50
2022/12/12 06:04:05;;;;;;;11.40;6.20;;;-5.20;99.90;;;;;;5030349;28;20512;-50
2022/12/12 06:06:32;;;;;;;13.17;6.57;;;-5.10;99.90;;;;;;5032991;28;20469;-51
2022/12/12 06:08:59;;;;;;;7.87;5.33;;;-5.10;99.90;;;;;;5034244;28;20452;-51
2022/12/12 06:11:26;;;;;;;10.47;6.37;;;-5.20;99.90;;;;;;5034233;28;20467;-50
2022/12/12 06:13:55;;;;;;;9.13;5.27;;;-5.10;99.90;;;;;;5033490;28;20469;-51
2022/12/12 06:16:22;;;;;;;9.20;6.33;;;-5.10;99.90;;;;;;5034042;28;20461;-51
2022/12/12 06:18:52;;;;;;;8.30;6.33;;;-5.20;99.90;;;;;;5034055;28;20451;-49
2022/12/12 06:21:19;;;;;;;8.47;5.57;;;-5.20;99.90;;;;;;5029846;28;20492;-51
2022/12/12 06:23:47;;;;;;;9.83;5.93;;;-5.20;99.90;;;;;;5033180;28;20505;-50
2022/12/12 06:26:15;;;;;;;9.67;5.73;;;-5.20;99.90;;;;;;5033895;28;20531;-52
2022/12/12 06:28:43;;;;;;;10.27;5.70;;;-5.20;99.90;;;;;;5033937;28;20446;-50
2022/12/12 06:31:12;;;;;;;12.73;8.20;;;-5.30;99.90;;;;;;5033318;28;20998;-51
2022/12/12 06:33:40;;;;;;;16.23;10.20;;;-5.30;99.90;;;;;;5033195;28;20507;-50
2022/12/12 06:36:10;;;;;;;22.10;11.37;;;-5.30;99.90;;;;;;5032645;28;20511;-51
2022/12/12 06:38:38;;;;;;;20.60;11.27;;;-5.40;99.90;;;;;;5025692;28;20515;-50
2022/12/12 06:41:07;;;;;;;21.87;11.37;;;-5.40;99.90;;;;;;5024973;28;20474;-51
2022/12/12 06:43:34;;;;;;;21.67;11.07;;;-5.40;99.90;;;;;;5032865;28;20477;-50
2022/12/12 06:46:02;;;;;;;11.87;7.97;;;-5.50;99.90;;;;;;5033264;28;20523;-51
2022/12/12 06:48:32;;;;;;;8.93;6.67;;;-5.50;99.90;;;;;;5033267;28;20459;-51
2022/12/12 06:50:59;;;;;;;19.47;9.30;;;-5.50;99.90;;;;;;5029146;28;20516;-51
2022/12/12 06:53:27;;;;;;;13.67;8.33;;;-5.50;99.90;;;;;;5027694;28;20447;-51
2022/12/12 06:55:54;;;;;;;14.13;8.20;;;-5.50;99.90;;;;;;5027673;28;20462;-51
2022/12/12 06:58:21;;;;;;;15.60;8.30;;;-5.50;99.90;;;;;;5031601;28;20501;-50
2022/12/12 07:00:51;;;;;;;14.40;7.43;;;-5.40;99.90;;;;;;5028422;28;20910;-51
2022/12/12 07:03:18;;;;;;;13.73;7.97;;;-5.30;99.90;;;;;;5026232;28;20992;-51
2022/12/12 07:05:47;;;;;;;17.27;9.77;;;-5.20;99.90;;;;;;5032888;28;20461;-50
2022/12/12 07:08:14;;;;;;;24.13;11.97;;;-5.20;99.90;;;;;;5023321;28;20462;-51
2022/12/12 07:10:42;;;;;;;18.53;10.03;;;-5.20;99.90;;;;;;5032881;28;20936;-52
2022/12/12 07:13:10;;;;;;;18.77;7.80;;;-5.30;99.90;;;;;;5032616;28;20453;-50
2022/12/12 07:15:42;;;;;;;12.10;7.03;;;-5.30;99.90;;;;;;5032023;28;20499;-49
2022/12/12 07:18:09;;;;;;;11.27;6.37;;;-5.30;99.90;;;;;;5032013;28;20516;-50
2022/12/12 07:20:38;;;;;;;8.77;6.07;;;-5.30;99.90;;;;;;5032194;28;20481;-50
2022/12/12 07:23:07;;;;;;;11.90;7.10;;;-5.30;99.90;;;;;;5012201;28;20446;-51
2022/12/12 07:25:37;;;;;;;12.10;6.80;;;-5.30;99.90;;;;;;5028107;28;20462;-51
2022/12/12 07:28:04;;;;;;;10.73;5.90;;;-5.40;99.90;;;;;;5026987;28;20547;-50
2022/12/12 07:30:32;;;;;;;10.67;6.77;;;-5.40;99.90;;;;;;5027057;28;20461;-51
2022/12/12 07:32:59;;;;;;;15.43;8.23;;;-5.50;99.90;;;;;;5031487;28;20670;-51
2022/12/12 07:35:26;;;;;;;9.73;6.73;;;-5.50;99.90;;;;;;5032305;28;21121;-51
2022/12/12 07:37:54;;;;;;;11.90;8.03;;;-5.50;99.90;;;;;;5031565;28;20531;-52
2022/12/12 07:40:22;;;;;;;15.17;9.53;;;-5.50;99.90;;;;;;5031630;28;20485;-49
2022/12/12 07:42:49;;;;;;;15.13;10.20;;;-5.40;99.90;;;;;;5031022;28;20450;-51
2022/12/12 07:45:17;;;;;;;15.20;10.20;;;-5.40;99.90;;;;;;5031496;28;20464;-51
2022/12/12 07:47:44;;;;;;;130.60;46.77;;;-5.40;99.90;;;;;;5050967;28;20464;-51
2022/12/12 07:50:11;;;;;;;111.17;42.53;;;-5.40;99.90;;;;;;5052171;28;20476;-51
2022/12/12 07:52:38;;;;;;;45.07;21.43;;;-5.40;99.90;;;;;;5051107;28;20454;-50
2022/12/12 07:55:06;;;;;;;27.73;16.83;;;-5.50;99.90;;;;;;5043190;28;20531;-50
2022/12/12 07:57:34;;;;;;;25.33;15.03;;;-5.40;99.90;;;;;;5030801;28;20477;-51
2022/12/12 08:00:02;;;;;;;22.90;13.03;;;-5.40;99.90;;;;;;5023398;28;20449;-51
2022/12/12 08:02:29;;;;;;;22.20;12.50;;;-5.30;99.90;;;;;;5032112;28;20484;-51
2022/12/12 08:04:56;;;;;;;23.63;11.73;;;-5.30;99.90;;;;;;5031333;28;20441;-50
2022/12/12 08:07:23;;;;;;;20.87;11.90;;;-5.20;99.90;;;;;;5033550;28;20528;-50
2022/12/12 08:09:50;;;;;;;20.73;10.90;;;-5.10;99.90;;;;;;5031852;28;20537;-50
2022/12/12 08:12:17;;;;;;;19.87;12.20;;;-5.10;99.90;;;;;;5031676;28;20503;-50
2022/12/12 08:14:46;;;;;;;21.20;11.00;;;-5.00;99.90;;;;;;5025644;28;20465;-50
2022/12/12 08:17:13;;;;;;;19.33;10.37;;;-4.90;99.90;;;;;;5019906;28;20486;-50
2022/12/12 08:19:43;;;;;;;16.70;9.83;;;-4.70;99.90;;;;;;5019099;28;20467;-51
2022/12/12 08:22:10;;;;;;;15.93;9.30;;;-4.60;99.90;;;;;;5029212;28;20485;-50
2022/12/12 08:24:37;;;;;;;15.43;8.87;;;-4.70;99.90;;;;;;5030685;28;20454;-51
2022/12/12 08:27:04;;;;;;;12.33;8.80;;;-4.60;99.90;;;;;;5031902;28;20478;-51
2022/12/12 08:29:32;;;;;;;13.57;8.10;;;-4.70;99.90;;;;;;5031693;28;20459;-51
2022/12/12 08:32:00;;;;;;;16.33;9.50;;;-4.60;99.90;;;;;;5030726;28;20454;-50
2022/12/12 08:34:27;;;;;;;15.60;8.27;;;-4.70;99.90;;;;;;5031080;28;20467;-52
2022/12/12 08:36:54;;;;;;;16.37;11.33;;;-4.70;99.90;;;;;;5031514;28;20879;-51
2022/12/12 08:39:22;;;;;;;15.50;9.67;;;-4.50;99.90;;;;;;5031707;28;20532;-51
2022/12/12 08:41:49;;;;;;;16.00;9.87;;;-4.60;99.90;;;;;;5031561;28;21104;-51
2022/12/12 08:44:18;;;;;;;15.23;9.57;;;-4.60;99.90;;;;;;5031095;28;20453;-51
2022/12/12 08:46:46;;;;;;;17.07;9.87;;;-4.40;99.90;;;;;;5031497;28;20477;-50
2022/12/12 08:49:15;;;;;;;12.03;8.70;;;-4.10;99.90;;;;;;5022376;28;20519;-51
2022/12/12 08:51:42;;;;;;;10.90;7.23;;;-3.80;99.90;;;;;;5028904;28;20507;-49
2022/12/12 08:54:11;;;;;;;11.30;7.33;;;-3.30;99.90;;;;;;5030776;28;20450;-51
2022/12/12 08:56:39;;;;;;;13.00;8.40;;;-3.10;99.90;;;;;;5031518;28;20501;-50
2022/12/12 08:59:06;;;;;;;11.73;8.20;;;-2.70;99.90;;;;;;5031747;28;20454;-50
2022/12/12 09:01:33;;;;;;;17.77;8.70;;;-2.50;99.90;;;;;;5030934;28;20477;-51
2022/12/12 09:04:00;;;;;;;11.93;7.50;;;-2.40;99.90;;;;;;5029369;28;20480;-51
2022/12/12 09:06:29;;;;;;;12.97;8.27;;;-2.30;99.90;;;;;;5035077;28;20228;-51
2022/12/12 09:08:56;;;;;;;15.67;7.63;;;-2.10;99.90;;;;;;5033004;28;20245;-50
2022/12/12 09:11:24;;;;;;;7.90;5.40;;;-1.90;99.90;;;;;;5032537;28;20549;-51
2022/12/12 09:13:51;;;;;;;12.13;6.23;;;-1.90;99.90;;;;;;5029668;28;20203;-53
2022/12/12 09:16:20;;;;;;;11.70;6.57;;;-1.80;99.90;;;;;;5033722;28;21029;-50
2022/12/12 09:18:47;;;;;;;13.73;6.13;;;-1.70;99.90;;;;;;5034181;28;20453;-50
2022/12/12 09:21:14;;;;;;;5.63;4.87;;;-1.60;99.90;;;;;;5035068;28;20486;-50
2022/12/12 09:23:42;;;;;;;7.13;4.80;;;-1.60;99.90;;;;;;5034543;28;20216;-50
2022/12/12 09:26:10;;;;;;;9.33;5.20;;;-1.80;99.90;;;;;;5034385;28;20266;-51
2022/12/12 09:28:38;;;;;;;10.33;5.83;;;-1.90;99.90;;;;;;5034937;28;20206;-50
2022/12/12 09:31:07;;;;;;;5.70;4.90;;;-2.10;99.90;;;;;;5035013;28;20222;-50
2022/12/12 09:33:34;;;;;;;6.50;4.83;;;-2.10;99.90;;;;;;5034442;28;20203;-50
2022/12/12 09:36:03;;;;;;;10.70;5.97;;;-2.10;99.90;;;;;;5033722;28;20245;-50
2022/12/12 09:38:30;;;;;;;5.40;4.27;;;-2.00;99.90;;;;;;5034932;28;20211;-50
2022/12/12 09:41:01;;;;;;;11.37;5.03;;;-2.00;99.90;;;;;;5034725;28;20478;-50
2022/12/12 09:43:31;;;;;;;7.40;5.93;;;-1.90;99.90;;;;;;5034234;28;20246;-50
2022/12/12 09:45:59;;;;;;;7.13;5.37;;;-2.00;99.90;;;;;;5034957;28;20208;-50
2022/12/12 09:48:35;;;;;;;6.63;4.47;;;-2.10;99.90;;;;;;5034514;28;20267;-50
2022/12/12 09:51:02;;;;;;;4.77;3.93;;;-2.00;99.90;;;;;;5034588;28;20625;-50
2022/12/12 09:53:30;;;;;;;6.00;3.60;;;-2.10;99.90;;;;;;5033131;28;20216;-50
2022/12/12 09:56:07;;;;;;;6.43;4.53;;;-2.00;99.90;;;;;;5034762;28;20204;-50
2022/12/12 09:58:41;;;;;;;8.60;5.83;;;-1.80;99.90;;;;;;5034682;28;20345;-50
2022/12/12 10:01:16;;;;;;;10.70;5.10;;;-1.80;99.90;;;;;;5034500;28;20226;-50
2022/12/12 10:04:06;;;;;;;8.60;4.90;;;-1.70;99.90;;;;;;5033777;28;20754;-51
2022/12/12 10:06:40;;;;;;;10.03;6.70;;;-1.50;99.90;;;;;;5034478;28;20221;-50
2022/12/12 10:09:32;;;;;;;9.17;5.67;;;-1.30;99.90;;;;;;5023490;28;20615;-51
2022/12/12 10:12:03;;;;;;;10.57;5.77;;;-0.70;99.90;;;;;;5025853;28;20193;-50
2022/12/12 10:14:34;;;;;;;8.30;5.67;;;0.00;99.90;;;;;;5039828;28;20883;-50
2022/12/12 10:17:03;;;;;;;9.57;5.00;;;0.30;99.90;;;;;;5032809;28;20939;-50
2022/12/12 10:19:34;;;;;;;5.67;5.03;;;0.70;99.90;;;;;;5034055;28;20209;-50
2022/12/12 10:22:08;;;;;;;5.73;4.00;;;1.10;99.90;;;;;;5033847;28;20228;-50
2022/12/12 10:24:44;;;;;;;7.73;5.07;;;1.30;99.90;;;;;;5033057;28;20205;-50
2022/12/12 10:27:14;;;;;;;8.63;5.43;;;1.50;99.90;;;;;;5031476;28;20233;-50
2022/12/12 10:29:47;;;;;;;15.67;6.77;;;1.80;99.90;;;;;;5023301;28;20209;-48
2022/12/12 10:32:27;;;;;;;12.27;5.00;;;1.40;99.90;;;;;;5032851;28;20243;-47
2022/12/12 10:35:08;;;;;;;10.87;4.70;;;1.10;99.90;;;;;;5032157;28;20200;-50
2022/12/12 10:37:46;;;;;;;15.43;4.77;;;0.90;99.90;;;;;;5033593;28;20237;-48
2022/12/12 10:40:27;;;;;;;6.83;3.17;;;0.50;99.90;;;;;;5033972;28;20263;-49
2022/12/12 10:42:59;;;;;;;3.73;2.90;;;0.20;99.90;;;;;;5032583;28;20235;-50
2022/12/12 10:45:38;;;;;;;7.17;3.80;;;0.10;99.90;;;;;;5025703;28;20239;-49
2022/12/12 10:48:05;;;;;;;13.03;4.53;;;0.20;99.90;;;;;;5026027;28;20196;-50
2022/12/12 10:50:35;;;;;;;8.20;4.57;;;0.20;99.90;;;;;;5033377;28;20213;-49
2022/12/12 10:53:04;;;;;;;10.50;4.30;;;0.10;99.90;;;;;;5033114;28;20265;-49
2022/12/12 10:55:40;;;;;;;7.37;4.47;;;0.10;99.90;;;;;;5033573;28;20210;-50
2022/12/12 10:58:08;;;;;;;5.10;2.80;;;-0.10;99.90;;;;;;5033244;28;20663;-48
2022/12/12 11:00:38;;;;;;;10.00;5.13;;;-0.10;99.90;;;;;;5023934;28;20255;-49
2022/12/12 11:03:19;;;;;;;5.30;3.40;;;-0.10;99.90;;;;;;5028019;28;20231;-51
2022/12/12 11:05:47;;;;;;;3.37;3.17;;;-0.20;99.90;;;;;;5033156;28;20205;-49
2022/12/12 11:08:26;;;;;;;4.77;3.23;;;-0.30;99.90;;;;;;5032776;28;20201;-49
2022/12/12 11:11:02;;;;;;;5.83;3.87;;;-0.30;99.90;;;;;;5033264;28;20203;-48
2022/12/12 11:13:32;;;;;;;9.10;3.80;;;-0.50;99.90;;;;;;5032278;28;20645;-52
2022/12/12 11:16:01;;;;;;;6.97;3.33;;;-0.40;99.90;;;;;;5027202;28;20201;-51
2022/12/12 11:18:29;;;;;;;3.73;3.17;;;-0.40;99.90;;;;;;5027735;28;20204;-52
2022/12/12 11:21:04;;;;;;;3.30;2.77;;;-0.50;99.90;;;;;;5032947;28;20203;-51
2022/12/12 11:23:34;;;;;;;6.03;2.70;;;-0.30;99.90;;;;;;5032037;28;20273;-50
2022/12/12 11:26:04;;;;;;;5.17;2.50;;;-0.20;99.90;;;;;;5032719;28;20779;-50
2022/12/12 11:28:36;;;;;;;4.27;3.17;;;-0.40;99.90;;;;;;5032651;28;20208;-52
2022/12/12 11:31:06;;;;;;;3.23;2.93;;;-0.20;99.90;;;;;;5032858;28;20675;-50
2022/12/12 11:33:38;;;;;;;3.50;3.30;;;-0.20;99.90;;;;;;5025698;28;20205;-51
2022/12/12 11:36:07;;;;;;;3.87;3.43;;;-0.20;99.90;;;;;;5019800;28;20232;-48
2022/12/12 11:38:39;;;;;;;4.37;2.40;;;0.00;99.90;;;;;;5025551;28;20207;-49
2022/12/12 11:41:08;;;;;;;7.87;3.37;;;0.00;99.90;;;;;;5021469;28;20667;-52
2022/12/12 11:43:52;;;;;;;2.93;2.43;;;0.00;99.90;;;;;;5026007;28;20208;-49
2022/12/12 11:46:23;;;;;;;4.20;3.50;;;0.00;99.90;;;;;;5026167;28;20218;-51
2022/12/12 11:48:58;;;;;;;7.00;3.50;;;0.10;99.90;;;;;;5029246;28;20551;-49
2022/12/12 11:51:35;;;;;;;6.57;3.83;;;-0.10;99.90;;;;;;5030427;28;20200;-51
2022/12/12 11:54:04;;;;;;;5.03;3.40;;;-0.30;99.90;;;;;;5027011;28;20290;-49
2022/12/12 11:56:44;;;;;;;6.28;5.18;;;-0.30;99.90;;;;;;5024929;28;20453;-51
2022/12/12 11:59:53;;;;;;;3.40;3.10;;;-0.20;99.90;;;;;;5031125;28;20589;-52
2022/12/12 12:02:48;;;;;;;10.63;4.17;;;-0.10;99.90;;;;;;5024660;28;20394;-49
2022/12/12 12:05:24;;;;;;;4.70;3.57;;;-0.10;99.90;;;;;;5023515;28;20206;-52
2022/12/12 12:08:03;;;;;;;7.53;3.03;;;-0.10;99.90;;;;;;5022854;28;20220;-50
2022/12/12 12:10:43;;;;;;;7.10;3.97;;;-0.20;99.90;;;;;;5029966;28;21059;-52
2022/12/12 12:13:23;;;;;;;6.77;3.87;;;-0.30;99.90;;;;;;5028725;28;20208;-50
2022/12/12 12:16:01;;;;;;;18.47;7.80;;;-0.40;99.90;;;;;;5026750;28;20226;-50
2022/12/12 12:18:43;;;;;;;4.60;3.73;;;-0.30;99.90;;;;;;5030052;28;20214;-49
2022/12/12 12:21:31;;;;;;;6.53;4.53;;;-0.20;99.90;;;;;;5024452;28;20198;-51
2022/12/12 12:24:18;;;;;;;10.53;3.93;;;-0.30;99.90;;;;;;5028088;28;20195;-49
2022/12/12 12:26:54;;;;;;;6.63;3.83;;;-0.20;99.90;;;;;;5028020;28;20225;-49
2022/12/12 12:29:42;;;;;;;11.97;5.00;;;-0.10;99.90;;;;;;5024198;28;20690;-48
2022/12/12 12:32:18;;;;;;;5.27;4.30;;;-0.10;99.90;;;;;;5029183;28;20191;-48
2022/12/12 12:35:00;;;;;;;6.30;3.97;;;-0.10;99.90;;;;;;5016993;28;20203;-48
2022/12/12 12:37:37;;;;;;;11.10;4.97;;;-0.10;99.90;;;;;;5027897;28;20236;-51
2022/12/12 12:40:18;;;;;;;19.70;9.77;;;-0.10;99.90;;;;;;5021278;28;20209;-48
2022/12/12 12:43:08;;;;;;;17.07;7.70;;;-0.20;99.90;;;;;;5026717;28;20230;-48
2022/12/12 12:45:45;;;;;;;9.20;5.13;;;-0.20;99.90;;;;;;5028411;28;20222;-53
2022/12/12 12:48:19;;;;;;;188.40;30.23;;;-0.20;99.90;;;;;;5026513;28;20611;-51
2022/12/12 12:50:51;;;;;;;14.67;5.33;;;-0.20;99.90;;;;;;5034374;28;20209;-49
2022/12/12 12:53:29;;;;;;;9.70;4.00;;;-0.20;99.90;;;;;;5031765;28;20254;-51
2022/12/12 12:56:03;;;;;;;7.40;3.97;;;-0.20;99.90;;;;;;5032814;28;20236;-49
2022/12/12 12:58:36;;;;;;;6.53;3.50;;;-0.30;99.90;;;;;;5033341;28;20199;-50
2022/12/12 13:01:08;;;;;;;5.83;4.20;;;-0.30;99.90;;;;;;5027875;28;20208;-50
2022/12/12 13:03:45;;;;;;;4.43;3.53;;;-0.40;99.90;;;;;;5032122;28;20221;-49
2022/12/12 13:06:20;;;;;;;3.90;3.23;;;-0.40;99.90;;;;;;5022818;28;20228;-48
2022/12/12 13:08:55;;;;;;;4.73;3.00;;;-0.30;99.90;;;;;;5028348;28;20232;-48
2022/12/12 13:11:28;;;;;;;3.67;3.37;;;-0.30;99.90;;;;;;5034154;28;20207;-49
2022/12/12 13:14:02;;;;;;;5.60;3.00;;;-0.20;99.90;;;;;;5034463;28;20200;-50
2022/12/12 13:16:32;;;;;;;7.23;2.63;;;-0.20;99.90;;;;;;5034060;28;20304;-51